createdAt,value
2018-02-12T00:01:19.620Z,9.77
2018-02-12T00:03:47.622Z,13.73
2018-02-12T00:06:18.879Z,9.47
2018-02-12T00:08:46.487Z,8.85
2018-02-12T00:11:14.034Z,8.97
2018-02-12T00:13:41.653Z,9.27
2018-02-12T00:18:44.972Z,8.80
2018-02-12T00:21:12.557Z,8.83
2018-02-12T00:23:40.196Z,8.50
2018-02-12T00:26:07.765Z,8.82
2018-02-12T00:28:36.295Z,7.77
2018-02-12T00:31:04.764Z,9.60
2018-02-12T00:33:41.174Z,8.17
2018-02-12T00:36:09.816Z,8.25
2018-02-12T00:38:39.861Z,8.20
2018-02-12T00:41:08.828Z,7.77
2018-02-12T00:43:36.409Z,8.17
2018-02-12T00:46:03.959Z,7.20
2018-02-12T00:48:31.517Z,6.40
2018-02-12T00:50:59.071Z,6.80
2018-02-12T00:53:26.596Z,6.70
2018-02-12T00:55:57.080Z,6.56
2018-02-12T00:58:24.657Z,5.90
2018-02-12T01:00:52.605Z,6.30
2018-02-12T01:03:20.150Z,5.90
2018-02-12T01:05:47.674Z,6.03
2018-02-12T01:08:15.889Z,5.20
2018-02-12T01:10:45.849Z,5.50
2018-02-12T01:13:13.588Z,5.30
2018-02-12T01:15:43.396Z,5.77
2018-02-12T01:18:11.195Z,4.30
2018-02-12T01:20:39.117Z,4.43
2018-02-12T01:23:08.477Z,4.47
2018-02-12T01:25:36.068Z,4.37
2018-02-12T01:28:03.736Z,4.63
2018-02-12T01:30:31.260Z,4.97
2018-02-12T01:32:59.026Z,4.30
2018-02-12T01:35:27.901Z,4.55
2018-02-12T01:37:55.515Z,4.63
2018-02-12T01:40:23.015Z,3.93
2018-02-12T01:42:51.077Z,4.70
2018-02-12T01:45:18.633Z,4.17
2018-02-12T01:47:46.703Z,3.83
2018-02-12T01:50:21.976Z,3.50
2018-02-12T01:52:49.538Z,3.87
2018-02-12T01:55:17.118Z,3.50
2018-02-12T01:57:45.154Z,3.58
2018-02-12T02:00:13.612Z,3.85
2018-02-12T02:02:41.181Z,4.10
2018-02-12T02:05:08.739Z,3.40
2018-02-12T02:07:36.320Z,3.93
2018-02-12T02:10:03.829Z,3.60
2018-02-12T02:12:31.489Z,4.03
2018-02-12T02:14:59.058Z,4.33
2018-02-12T02:17:26.934Z,3.47
2018-02-12T02:19:54.547Z,3.70
2018-02-12T02:22:22.740Z,5.68
2018-02-12T02:24:53.578Z,4.10
2018-02-12T02:27:21.218Z,4.40
2018-02-12T02:29:49.071Z,3.73
2018-02-12T02:32:16.645Z,4.37
2018-02-12T02:34:45.594Z,3.80
2018-02-12T02:37:13.866Z,4.07
2018-02-12T02:39:41.402Z,4.90
2018-02-12T02:42:09.109Z,4.07
2018-02-12T02:44:37.038Z,5.20
2018-02-12T02:47:05.657Z,3.50
2018-02-12T02:49:33.615Z,4.87
2018-02-12T02:52:01.542Z,3.90
2018-02-12T02:54:29.377Z,4.15
2018-02-12T02:56:56.941Z,3.50
2018-02-12T02:59:24.503Z,4.40
2018-02-12T03:01:53.030Z,5.10
2018-02-12T03:04:20.547Z,5.47
2018-02-12T03:07:01.045Z,4.33
2018-02-12T03:09:28.937Z,4.32
2018-02-12T03:12:07.288Z,4.40
2018-02-12T03:14:37.299Z,4.95
2018-02-12T03:17:06.243Z,4.15
2018-02-12T03:19:46.746Z,5.00
2018-02-12T03:22:22.989Z,5.30
2018-02-12T03:24:59.549Z,4.60
2018-02-12T03:27:28.453Z,4.72
2018-02-12T03:30:06.217Z,4.60
2018-02-12T03:32:45.124Z,4.10
2018-02-12T03:35:25.580Z,4.27
2018-02-12T03:37:54.507Z,4.73
2018-02-12T03:40:35.876Z,4.90
2018-02-12T03:43:04.951Z,3.97
2018-02-12T03:48:53.480Z,4.90
2018-02-12T03:51:27.233Z,5.40
2018-02-12T03:54:15.186Z,5.65
2018-02-12T03:56:59.530Z,5.23
2018-02-12T03:59:40.960Z,6.17
2018-02-12T04:02:15.781Z,4.53
2018-02-12T04:04:43.762Z,5.30
2018-02-12T04:07:11.677Z,5.30
2018-02-12T04:09:39.246Z,5.87
2018-02-12T04:12:07.701Z,5.60
2018-02-12T04:14:38.973Z,6.30
2018-02-12T04:17:07.827Z,7.17
2018-02-12T04:19:35.371Z,7.20
2018-02-12T04:22:02.929Z,6.27
2018-02-12T04:24:30.853Z,6.00
2018-02-12T04:26:58.404Z,5.70
2018-02-12T04:29:25.951Z,6.40
2018-02-12T04:31:53.521Z,4.93
2018-02-12T04:34:21.062Z,5.00
2018-02-12T04:36:48.621Z,5.60
2018-02-12T04:39:16.156Z,4.20
2018-02-12T04:41:43.771Z,5.87
2018-02-12T04:44:11.312Z,4.00
2018-02-12T04:46:38.866Z,4.97
2018-02-12T04:49:06.434Z,5.00
2018-02-12T04:51:33.962Z,4.03
2018-02-12T04:54:01.530Z,4.90
2018-02-12T04:56:29.088Z,4.80
2018-02-12T04:58:56.648Z,3.43
2018-02-12T05:01:24.237Z,4.00
2018-02-12T05:03:51.817Z,4.12
2018-02-12T05:06:19.413Z,3.63
2018-02-12T05:08:46.936Z,3.60
2018-02-12T05:11:14.472Z,4.23
2018-02-12T05:13:42.057Z,3.77
2018-02-12T05:16:09.607Z,3.33
2018-02-12T05:18:37.939Z,3.80
2018-02-12T05:21:05.489Z,3.37
2018-02-12T05:23:33.031Z,3.12
2018-02-12T05:26:00.607Z,3.87
2018-02-12T05:28:28.203Z,4.07
2018-02-12T05:30:55.730Z,4.23
2018-02-12T05:33:23.298Z,4.47
2018-02-12T05:35:50.845Z,4.80
2018-02-12T05:38:18.421Z,4.53
2018-02-12T05:40:46.038Z,4.40
2018-02-12T05:43:13.569Z,5.23
2018-02-12T05:45:41.120Z,4.60
2018-02-12T05:48:08.673Z,3.93
2018-02-12T05:50:36.216Z,4.00
2018-02-12T05:53:03.814Z,5.10
2018-02-12T05:55:31.401Z,4.33
2018-02-12T05:57:59.346Z,3.93
2018-02-12T06:00:26.953Z,4.40
2018-02-12T06:02:54.882Z,4.93
2018-02-12T06:05:22.922Z,5.07
2018-02-12T06:07:50.673Z,5.05
2018-02-12T06:10:18.263Z,4.80
2018-02-12T06:12:46.541Z,4.70
2018-02-12T06:15:14.754Z,4.53
2018-02-12T06:17:43.316Z,5.73
2018-02-12T06:20:10.865Z,4.60
2018-02-12T06:22:38.448Z,5.13
2018-02-12T06:25:06.086Z,4.97
2018-02-12T06:27:33.642Z,4.60
2018-02-12T06:30:01.174Z,4.60
2018-02-12T06:32:28.725Z,5.97
2018-02-12T06:34:56.279Z,5.13
2018-02-12T06:37:23.838Z,4.60
2018-02-12T06:39:51.403Z,4.63
2018-02-12T06:42:18.997Z,3.90
2018-02-12T06:44:47.669Z,4.13
2018-02-12T06:47:15.237Z,4.47
2018-02-12T06:49:42.813Z,4.87
2018-02-12T06:52:10.356Z,4.40
2018-02-12T06:54:37.944Z,5.33
2018-02-12T06:57:05.503Z,4.80
2018-02-12T06:59:33.467Z,6.67
2018-02-12T07:02:00.997Z,4.87
2018-02-12T07:04:28.537Z,4.97
2018-02-12T07:06:56.060Z,5.20
2018-02-12T07:09:23.738Z,5.03
2018-02-12T07:11:51.322Z,4.57
2018-02-12T07:14:18.869Z,5.20
2018-02-12T07:16:46.515Z,4.43
2018-02-12T07:19:14.047Z,4.70
2018-02-12T07:21:42.000Z,4.90
2018-02-12T07:24:10.307Z,4.47
2018-02-12T07:26:37.837Z,6.97
2018-02-12T07:29:05.425Z,5.40
2018-02-12T07:31:32.974Z,7.10
2018-02-12T07:34:00.920Z,6.53
2018-02-12T07:36:28.496Z,6.22
2018-02-12T07:38:56.043Z,6.57
2018-02-12T07:41:23.643Z,5.70
2018-02-12T07:43:51.217Z,6.50
2018-02-12T07:46:19.250Z,7.03
2018-02-12T07:48:46.773Z,6.90
2018-02-12T07:51:14.328Z,6.77
2018-02-12T07:53:41.885Z,9.27
2018-02-12T07:56:09.469Z,7.40
2018-02-12T07:58:40.678Z,5.15
2018-02-12T08:01:08.270Z,5.75
2018-02-12T08:03:35.797Z,4.33
2018-02-12T08:06:03.387Z,5.80
2018-02-12T08:08:30.910Z,5.17
2018-02-12T08:10:58.456Z,4.77
2018-02-12T08:13:25.980Z,5.53
2018-02-12T08:15:53.926Z,6.90
2018-02-12T08:18:21.536Z,11.40
2018-02-12T08:20:49.516Z,7.77
2018-02-12T08:23:17.059Z,5.63
2018-02-12T08:25:44.585Z,6.45
2018-02-12T08:28:12.727Z,5.73
2018-02-12T08:30:40.273Z,6.10
2018-02-12T08:33:07.992Z,6.60
2018-02-12T08:35:35.703Z,4.97
2018-02-12T08:38:03.240Z,5.37
2018-02-12T08:40:30.848Z,4.95
2018-02-12T08:42:58.473Z,5.80
2018-02-12T08:45:26.045Z,4.47
2018-02-12T08:47:53.592Z,5.53
2018-02-12T08:50:21.676Z,5.35
2018-02-12T08:52:49.232Z,5.03
2018-02-12T08:55:18.099Z,5.87
2018-02-12T08:57:46.005Z,7.12
2018-02-12T09:00:13.571Z,5.90
2018-02-12T09:02:41.158Z,5.90
2018-02-12T09:05:08.736Z,5.87
2018-02-12T09:07:36.818Z,5.68
2018-02-12T09:10:04.409Z,5.87
2018-02-12T09:12:32.704Z,5.50
2018-02-12T09:15:00.306Z,9.40
2018-02-12T09:17:27.897Z,10.53
2018-02-12T09:19:55.443Z,6.50
2018-02-12T09:22:23.040Z,6.60
2018-02-12T09:24:50.598Z,6.50
2018-02-12T09:27:18.202Z,6.73
2018-02-12T09:29:46.148Z,6.25
2018-02-12T09:32:13.716Z,6.35
2018-02-12T09:34:41.270Z,6.80
2018-02-12T09:37:08.948Z,6.53
2018-02-12T09:39:36.788Z,6.33
2018-02-12T09:42:04.356Z,6.87
2018-02-12T09:44:31.896Z,6.40
2018-02-12T09:46:59.656Z,7.70
2018-02-12T09:49:27.482Z,7.22
2018-02-12T09:51:55.058Z,6.80
2018-02-12T09:54:22.685Z,7.10
2018-02-12T09:56:53.417Z,7.07
2018-02-12T09:59:21.675Z,7.30
2018-02-12T10:01:49.257Z,7.15
2018-02-12T10:04:17.576Z,10.90
2018-02-12T10:06:45.189Z,9.13
2018-02-12T10:09:12.911Z,8.48
2018-02-12T10:11:43.430Z,8.82
2018-02-12T10:14:12.114Z,7.53
2018-02-12T10:16:39.690Z,7.70
2018-02-12T10:19:07.481Z,8.88
2018-02-12T10:21:35.088Z,9.90
2018-02-12T10:24:02.682Z,9.30
2018-02-12T10:26:30.320Z,7.20
2018-02-12T10:29:01.046Z,8.03
2018-02-12T10:31:33.514Z,6.30
2018-02-12T10:34:01.492Z,6.50
2018-02-12T10:36:29.115Z,9.90
2018-02-12T10:38:57.073Z,7.25
2018-02-12T10:41:25.422Z,7.47
2018-02-12T10:43:53.987Z,9.60
2018-02-12T10:46:21.866Z,17.70
2018-02-12T10:48:50.655Z,8.90
2018-02-12T10:51:18.475Z,7.40
2018-02-12T10:53:46.925Z,8.60
2018-02-12T10:56:14.544Z,7.10
2018-02-12T10:58:42.916Z,8.10
2018-02-12T11:01:12.529Z,8.37
2018-02-12T11:03:41.216Z,8.73
2018-02-12T11:06:08.778Z,9.13
2018-02-12T11:08:39.375Z,9.10
2018-02-12T11:11:07.344Z,6.87
2018-02-12T11:13:37.189Z,6.17
2018-02-12T11:16:04.957Z,4.53
2018-02-12T11:18:32.527Z,4.10
2018-02-12T11:21:00.224Z,4.53
2018-02-12T11:23:28.715Z,13.60
2018-02-12T11:25:57.946Z,6.18
2018-02-12T11:28:25.534Z,4.63
2018-02-12T11:30:53.131Z,3.97
2018-02-12T11:33:20.728Z,4.60
2018-02-12T11:35:52.954Z,3.50
2018-02-12T11:38:20.533Z,4.20
2018-02-12T11:40:48.061Z,2.93
2018-02-12T11:43:15.654Z,3.60
2018-02-12T11:45:43.241Z,3.23
2018-02-12T11:48:10.810Z,3.50
2018-02-12T11:50:38.350Z,3.25
2018-02-12T11:53:05.900Z,3.45
2018-02-12T11:55:33.469Z,3.30
2018-02-12T11:58:04.786Z,2.70
2018-02-12T12:00:32.773Z,4.13
2018-02-12T12:03:00.328Z,3.80
2018-02-12T12:05:28.278Z,3.23
2018-02-12T12:07:56.223Z,3.67
2018-02-12T12:10:23.769Z,4.30
2018-02-12T12:12:51.387Z,4.83
2018-02-12T12:15:18.951Z,6.77
2018-02-12T12:17:46.562Z,5.97
2018-02-12T12:20:14.211Z,5.23
2018-02-12T12:22:41.746Z,5.28
2018-02-12T12:25:09.420Z,4.13
2018-02-12T12:27:37.047Z,4.70
2018-02-12T12:30:05.021Z,4.23
2018-02-12T12:32:36.038Z,2.80
2018-02-12T12:35:04.001Z,3.70
2018-02-12T12:37:31.670Z,2.40
2018-02-12T12:39:59.662Z,2.50
2018-02-12T12:42:27.618Z,2.60
2018-02-12T12:44:56.101Z,2.50
2018-02-12T12:47:23.706Z,2.53
2018-02-12T12:49:54.802Z,2.40
2018-02-12T12:52:22.787Z,2.20
2018-02-12T12:54:50.380Z,2.20
2018-02-12T12:57:17.962Z,2.33
2018-02-12T12:59:45.654Z,2.80
2018-02-12T13:02:13.617Z,2.87
2018-02-12T13:04:41.568Z,2.63
2018-02-12T13:07:09.166Z,2.90
2018-02-12T13:09:36.812Z,2.53
2018-02-12T13:12:04.801Z,2.60
2018-02-12T13:14:32.329Z,2.50
2018-02-12T13:17:00.283Z,2.90
2018-02-12T13:19:28.021Z,2.50
2018-02-12T13:21:55.580Z,2.80
2018-02-12T13:24:29.384Z,2.30
2018-02-12T13:27:07.770Z,2.25
2018-02-12T13:29:35.614Z,3.50
2018-02-12T13:32:03.554Z,2.57
2018-02-12T13:34:31.165Z,3.63
2018-02-12T13:37:03.573Z,2.53
2018-02-12T13:39:31.141Z,3.43
2018-02-12T13:41:58.973Z,3.05
2018-02-12T13:44:30.097Z,2.50
2018-02-12T13:46:59.528Z,2.92
2018-02-12T13:49:27.095Z,2.57
2018-02-12T13:51:54.755Z,3.37
2018-02-12T13:54:22.301Z,3.43
2018-02-12T13:56:49.915Z,2.87
2018-02-12T13:59:17.877Z,2.78
2018-02-12T14:01:45.567Z,2.73
2018-02-12T14:04:13.114Z,2.87
2018-02-12T14:06:41.103Z,3.37
2018-02-12T14:09:08.659Z,3.12
2018-02-12T14:11:36.328Z,3.80
2018-02-12T14:14:03.914Z,3.40
2018-02-12T14:16:33.927Z,4.32
2018-02-12T14:19:01.526Z,2.90
2018-02-12T14:21:29.128Z,3.80
2018-02-12T14:23:58.655Z,4.03
2018-02-12T14:26:26.284Z,3.62
2018-02-12T14:28:57.148Z,4.50
2018-02-12T14:31:24.708Z,4.30
2018-02-12T14:33:55.674Z,4.00
2018-02-12T14:36:24.017Z,4.03
2018-02-12T14:38:52.735Z,3.67
2018-02-12T14:41:20.937Z,3.87
2018-02-12T14:43:48.530Z,4.20
2018-02-12T14:46:17.096Z,5.17
2018-02-12T14:48:45.113Z,4.07
2018-02-12T14:51:12.711Z,2.90
2018-02-12T14:53:40.886Z,4.30
2018-02-12T14:56:08.890Z,4.47
2018-02-12T14:58:36.535Z,5.87
2018-02-12T15:01:04.094Z,4.30
2018-02-12T15:03:31.673Z,5.15
2018-02-12T15:05:59.347Z,5.97
2018-02-12T15:08:26.911Z,4.80
2018-02-12T15:10:54.458Z,8.30
2018-02-12T15:13:22.046Z,3.70
2018-02-12T15:15:49.585Z,3.60
2018-02-12T15:18:17.128Z,4.23
2018-02-12T15:20:48.899Z,2.60
2018-02-12T15:23:16.613Z,3.70
2018-02-12T15:25:44.598Z,3.30
2018-02-12T15:28:12.671Z,2.90
2018-02-12T15:30:45.596Z,3.83
2018-02-12T15:33:13.488Z,3.33
2018-02-12T15:35:41.064Z,4.57
2018-02-12T15:38:08.636Z,2.77
2018-02-12T15:40:36.764Z,2.93
2018-02-12T15:43:04.340Z,4.22
2018-02-12T15:45:31.849Z,5.07
2018-02-12T15:47:59.431Z,2.40
2018-02-12T15:50:26.993Z,5.40
2018-02-12T15:55:36.337Z,2.95
2018-02-12T15:58:05.876Z,2.20
2018-02-12T16:00:33.439Z,2.90
2018-02-12T16:03:00.951Z,2.60
2018-02-12T16:05:28.728Z,2.43
2018-02-12T16:07:56.279Z,2.90
2018-02-12T16:10:23.851Z,3.77
2018-02-12T16:12:51.396Z,3.97
2018-02-12T16:15:18.997Z,2.70
2018-02-12T16:17:46.630Z,3.92
2018-02-12T16:20:14.218Z,6.60
2018-02-12T16:22:45.705Z,8.13
2018-02-12T16:25:13.284Z,3.83
2018-02-12T16:27:40.879Z,2.80
2018-02-12T16:30:08.523Z,3.00
2018-02-12T16:32:36.118Z,4.03
2018-02-12T16:35:05.542Z,3.00
2018-02-12T16:37:36.320Z,5.73
2018-02-12T16:40:04.073Z,2.70
2018-02-12T16:42:31.660Z,3.40
2018-02-12T16:44:59.356Z,4.63
2018-02-12T16:47:30.207Z,5.00
2018-02-12T16:50:01.620Z,3.37
2018-02-12T16:52:29.990Z,3.60
2018-02-12T16:54:59.555Z,2.93
2018-02-12T16:57:27.882Z,2.87
2018-02-12T16:59:56.360Z,3.42
2018-02-12T17:02:24.008Z,4.20
2018-02-12T17:04:52.513Z,2.90
2018-02-12T17:07:20.127Z,3.53
2018-02-12T17:09:48.342Z,3.07
2018-02-12T17:12:15.858Z,3.87
2018-02-12T17:14:43.421Z,3.57
2018-02-12T17:17:11.002Z,4.00
2018-02-12T17:19:38.538Z,3.37
2018-02-12T17:22:06.070Z,5.80
2018-02-12T17:24:33.632Z,5.35
2018-02-12T17:27:01.528Z,3.30
2018-02-12T17:29:29.070Z,3.67
2018-02-12T17:31:56.635Z,3.80
2018-02-12T17:34:24.176Z,3.70
2018-02-12T17:36:56.517Z,3.63
2018-02-12T17:39:24.083Z,4.30
2018-02-12T17:41:53.215Z,6.12
2018-02-12T17:44:22.313Z,3.80
2018-02-12T17:46:49.872Z,6.50
2018-02-12T17:49:18.254Z,4.10
2018-02-12T17:51:45.809Z,4.28
2018-02-12T17:54:13.734Z,4.50
2018-02-12T17:56:41.678Z,4.43
2018-02-12T17:59:09.221Z,4.73
2018-02-12T18:01:36.792Z,4.97
2018-02-12T18:04:04.341Z,6.90
2018-02-12T18:06:31.934Z,6.20
2018-02-12T18:08:59.672Z,12.30
2018-02-12T18:11:27.230Z,10.27
2018-02-12T18:13:54.818Z,13.20
2018-02-12T18:16:22.355Z,9.70
2018-02-12T18:18:49.990Z,5.87
2018-02-12T18:21:17.579Z,5.00
2018-02-12T18:23:45.137Z,7.17
2018-02-12T18:26:12.709Z,10.55
2018-02-12T18:28:40.313Z,11.33
2018-02-12T18:31:11.207Z,16.00
2018-02-12T18:33:38.772Z,10.07
2018-02-12T18:36:06.459Z,6.63
2018-02-12T18:38:34.019Z,6.60
2018-02-12T18:41:01.566Z,6.43
2018-02-12T18:43:29.537Z,5.30
2018-02-12T18:45:57.121Z,4.90
2018-02-12T18:48:24.696Z,4.87
2018-02-12T18:50:52.261Z,5.00
2018-02-12T18:53:19.815Z,4.70
2018-02-12T18:55:47.463Z,4.17
2018-02-12T18:58:17.403Z,5.13
2018-02-12T19:00:46.017Z,5.77
2018-02-12T19:03:13.553Z,5.60
2018-02-12T19:05:41.121Z,6.00
2018-02-12T19:08:09.197Z,5.40
2018-02-12T19:10:36.748Z,4.40
2018-02-12T19:13:04.344Z,4.40
2018-02-12T19:15:32.327Z,4.07
2018-02-12T19:18:00.309Z,4.20
2018-02-12T19:20:27.864Z,4.28
2018-02-12T19:22:55.413Z,4.57
2018-02-12T19:25:22.990Z,4.80
2018-02-12T19:27:52.329Z,4.60
2018-02-12T19:30:19.929Z,4.13
2018-02-12T19:32:50.054Z,3.80
2018-02-12T19:35:17.740Z,3.50
2018-02-12T19:37:45.465Z,3.60
2018-02-12T19:40:13.110Z,4.87
2018-02-12T19:42:40.794Z,4.25
2018-02-12T19:45:13.996Z,4.40
2018-02-12T19:47:47.139Z,5.57
2018-02-12T19:50:15.378Z,6.50
2018-02-12T19:52:43.088Z,7.97
2018-02-12T19:55:10.829Z,6.30
2018-02-12T19:57:38.463Z,4.87
2018-02-12T20:00:06.149Z,5.80
2018-02-12T20:02:33.939Z,5.25
2018-02-12T20:05:01.580Z,7.00
2018-02-12T20:07:29.211Z,5.87
2018-02-12T20:09:56.950Z,5.73
2018-02-12T20:12:25.366Z,6.50
2018-02-12T20:14:53.212Z,6.37
2018-02-12T20:17:21.415Z,18.20
2018-02-12T20:19:50.322Z,10.63
2018-02-12T20:22:19.274Z,8.30
2018-02-12T20:24:48.616Z,11.37
2018-02-12T20:27:16.250Z,13.13
2018-02-12T20:29:43.870Z,16.17
2018-02-12T20:32:11.954Z,15.23
2018-02-12T20:34:39.634Z,39.47
2018-02-12T20:37:07.286Z,16.57
2018-02-12T20:39:36.717Z,13.30
2018-02-12T20:42:04.381Z,7.10
2018-02-12T20:44:32.029Z,5.77
2018-02-12T20:46:59.650Z,5.65
2018-02-12T20:49:27.450Z,6.03
2018-02-12T20:51:55.102Z,5.57
2018-02-12T20:54:22.758Z,4.85
2018-02-12T20:56:50.899Z,6.00
2018-02-12T20:59:18.570Z,5.90
2018-02-12T21:01:46.777Z,5.33
2018-02-12T21:04:14.449Z,5.60
2018-02-12T21:06:42.094Z,7.43
2018-02-12T21:09:09.718Z,5.67
2018-02-12T21:11:38.082Z,5.10
2018-02-12T21:14:06.123Z,5.27
2018-02-12T21:16:33.806Z,5.22
2018-02-12T21:19:01.478Z,6.00
2018-02-12T21:21:29.133Z,5.73
2018-02-12T21:23:57.753Z,5.90
2018-02-12T21:26:25.396Z,5.87
2018-02-12T21:28:53.030Z,6.00
2018-02-12T21:31:20.720Z,6.25
2018-02-12T21:33:48.384Z,5.90
2018-02-12T21:36:16.029Z,6.43
2018-02-12T21:38:43.673Z,6.17
2018-02-12T21:41:11.320Z,5.43
2018-02-12T21:43:38.905Z,6.10
2018-02-12T21:46:06.545Z,6.13
2018-02-12T21:48:36.258Z,6.10
2018-02-12T21:51:04.012Z,5.63
2018-02-12T21:53:33.054Z,6.40
2018-02-12T21:56:00.731Z,7.47
2018-02-12T21:58:28.726Z,7.50
2018-02-12T22:00:56.399Z,6.97
2018-02-12T22:03:24.045Z,6.80
2018-02-12T22:05:51.646Z,6.90
2018-02-12T22:08:19.838Z,5.50
2018-02-12T22:10:47.560Z,6.20
2018-02-12T22:13:20.698Z,7.17
2018-02-12T22:15:48.775Z,7.00
2018-02-12T22:18:16.410Z,6.27
2018-02-12T22:20:43.995Z,5.60
2018-02-12T22:23:11.650Z,5.82
2018-02-12T22:25:39.234Z,6.77
2018-02-12T22:28:07.231Z,7.27
2018-02-12T22:30:34.988Z,7.03
2018-02-12T22:35:38.091Z,6.30
2018-02-12T22:38:05.771Z,5.68
2018-02-12T22:40:35.640Z,6.23
2018-02-12T22:43:03.345Z,5.73
2018-02-12T22:45:30.985Z,6.70
2018-02-12T22:47:59.064Z,5.47
2018-02-12T22:50:26.685Z,5.72
2018-02-12T22:52:57.188Z,5.80
2018-02-12T22:55:24.782Z,5.37
2018-02-12T22:57:52.376Z,6.50
2018-02-12T23:00:20.022Z,5.60
2018-02-12T23:02:48.080Z,5.50
2018-02-12T23:05:16.187Z,6.07
2018-02-12T23:07:43.818Z,6.40
2018-02-12T23:10:11.423Z,6.00
2018-02-12T23:12:39.126Z,5.87
2018-02-12T23:15:12.403Z,5.47
2018-02-12T23:17:39.989Z,5.63
2018-02-12T23:20:07.544Z,5.57
2018-02-12T23:22:41.763Z,6.57
2018-02-12T23:25:18.851Z,5.33
2018-02-12T23:27:56.572Z,6.30
2018-02-12T23:30:50.967Z,5.83
2018-02-12T23:33:23.832Z,6.37
2018-02-12T23:36:35.365Z,5.77
2018-02-12T23:39:19.758Z,6.33
2018-02-12T23:41:57.393Z,6.00
2018-02-12T23:44:51.744Z,6.10
2018-02-12T23:47:20.433Z,6.20
2018-02-12T23:49:48.404Z,6.40
2018-02-12T23:52:17.136Z,6.57
2018-02-12T23:54:44.682Z,6.10
2018-02-12T23:57:12.270Z,6.60
2018-02-12T23:59:40.458Z,6.00
